Flight Track Log - Related Links

Times and Time Zones

All times are in EDT time to prevent confusion due to time zone crossing. See the EJA831 flight status page for this flight to view local times or setup timezone preferences in your user account.

Time Position Orientation Groundspeed Altitude Reporting Facility
EDT Latitude Longitude Course Direction KTS MPH feet Rate Location/Type
Sun 03:23:05 PM 33.6458 -117.8869 48° Northeast 201 231 1,500  Level Los Angeles Center
Sun 03:24:07 PM 33.5894 -117.9011 192° South 206 237 3,900 2,226 Climbing Los Angeles Center
Sun 03:25:09 PM 33.5294 -117.9342 205° Southwest 223 257 6,100 1,694 Climbing Los Angeles Center
Sun 03:26:11 PM 33.5069 -118.0064 250° West 235 270 7,400 1,452 Climbing Los Angeles Center
Sun 03:27:13 PM 33.5303 -118.0797 291° West 236 272 9,100 1,147 Climbing Los Angeles Center
Sun 03:28:00 PM 34.1104 -117.7251 48° Northeast  Level FlightAware Approximate
Sun 03:28:27 PM 33.5947 -118.1286 328° Northwest 285 328 10,000  Level Los Angeles Center
Sun 03:29:30 PM 33.6892 -118.1122 North 314 361 12,300 2,448 Climbing Los Angeles Center
Sun 03:30:32 PM 33.7817 -118.0544 27° Northeast 316 364 15,100 2,710 Climbing Los Angeles Center
Sun 03:31:34 PM 33.8544 -117.9906 36° Northeast 324 373 17,900 2,468 Climbing Los Angeles Center
Sun 03:32:36 PM 33.9289 -117.9228 37° Northeast 335 386 20,200 2,129 Climbing Los Angeles Center
Sun 03:33:38 PM 34.0069 -117.8533 36° Northeast 348 400 22,300 1,355 Climbing Los Angeles Center
Sun 03:34:40 PM 34.0708 -117.7942 37° Northeast 358 412 23,000 336 Climbing Los Angeles Center
Sun 03:35:43 PM 34.1753 -117.6569 47° Northeast 397 457 23,000  Level Los Angeles Center
Sun 03:36:45 PM 34.2522 -117.5539 48° Northeast 411 473 23,000 -387 Level Los Angeles Center
Sun 03:37:47 PM 34.3322 -117.4439 49° Northeast 417 480 22,200 -1,113 Descending Los Angeles Center
Sun 03:38:49 PM 34.4078 -117.3419 48° Northeast 409 471 20,700 -1,452 Descending Los Angeles Center
Sun 03:39:51 PM 34.4800 -117.2419 49° Northeast 400 460 19,200 -823 Descending Los Angeles Center
Sun 03:40:53 PM 34.5525 -117.1436 48° Northeast 396 456 19,000 -97 Descending Los Angeles Center
Sun 03:41:55 PM 34.6381 -117.0258 49° Northeast 391 450 19,000  Level Los Angeles Center
Sun 03:42:58 PM 34.7094 -116.9261 49° Northeast 393 452 19,000  Level Los Angeles Center
Sun 03:44:00 PM 34.7811 -116.8281 48° Northeast 391 450 19,000  Level Los Angeles Center
Sun 03:45:02 PM 34.8531 -116.7286 49° Northeast 393 452 19,000  Level Los Angeles Center
Sun 03:46:04 PM 34.9233 -116.6294 49° Northeast 391 450 19,000  Level Los Angeles Center
Sun 03:47:06 PM 35.0108 -116.5136 47° Northeast 389 448 19,000  Level Los Angeles Center
Sun 03:48:08 PM 35.0875 -116.4197 45° Northeast 389 448 19,000  Level Los Angeles Center
Sun 03:49:10 PM 35.1636 -116.3258 45° Northeast 390 449 19,000  Level Los Angeles Center
Sun 03:50:13 PM 35.2389 -116.2300 46° Northeast 391 450 19,000  Level Los Angeles Center
Sun 03:51:15 PM 35.3133 -116.1344 46° Northeast 391 450 19,000  Level Los Angeles Center
Sun 03:52:29 PM 35.3889 -116.0397 46° Northeast 389 448 19,000 -286 Level Los Angeles Center
Sun 03:53:21 PM 35.4836 -115.9264 44° Northeast 389 448 18,400 -968 Descending Los Angeles Center
Sun 03:53:31 PM 35.4925 -115.9081 59° Northeast 385 443 18,000 -2,182 Descending Los Angeles Center
Sun 03:54:16 PM 35.5519 -115.8414 42° Northeast 384 442 16,400 -1,839 Descending Los Angeles Center
Sun 03:54:33 PM 35.5611 -115.8217 60° Northeast 383 441 16,100 -1,967 Descending Los Angeles Center
Sun 03:55:17 PM 35.6231 -115.7500 43° Northeast 374 430 14,400 -2,095 Descending Los Angeles Center
Sun 03:55:36 PM 35.6433 -115.7161 54° Northeast 360 414 13,900 -1,672 Descending Los Angeles Center
Sun 03:56:18 PM 35.6656 -115.6467 68° East 328 377 12,700 -1,645 Descending Los Angeles Center
Sun 03:56:38 PM 35.6711 -115.6122 79° East 327 376 12,200 -1,672 Descending Los Angeles Center
Sun 03:57:19 PM 35.6903 -115.5408 72° East 322 371 11,000 -1,645 Descending Los Angeles Center
Sun 03:57:40 PM 35.6958 -115.5083 78° East 320 368 10,500 -1,791 Descending Los Angeles Center
Sun 03:58:26 PM 35.7383 -115.4431 51° Northeast 316 364 9,000 -1,645 Descending Los Angeles Center
Sun 03:58:42 PM 35.7508 -115.4319 36° Northeast 319 367 8,800 -1,091 Descending Los Angeles Center
Sun 03:59:21 PM 35.8044 -115.3900 32° Northeast 301 346 8,000 -774 Descending Los Angeles Center
Sun 03:59:44 PM 35.8181 -115.3744 43° Northeast 308 354 8,000 -500 Level Los Angeles Center
Sun 04:00:21 PM 35.8669 -115.3483 23° Northeast 260 299 7,500 -1,258 Descending Los Angeles Center
Sun 04:00:46 PM 35.8953 -115.3306 27° Northeast 276 318 6,700 -1,770 Descending Los Angeles Center
Sun 04:01:22 PM 35.9333 -115.3161 17° North 245 282 5,700 -1,548 Descending Los Angeles Center
Sun 04:01:48 PM 35.9581 -115.3019 25° Northeast 257 296 5,100 -1,574 Descending Los Angeles Center
Sun 04:02:23 PM 35.9981 -115.2869 17° North 257 296 4,100 -290 Descending Los Angeles Center
Sun 04:02:50 PM 36.0197 -115.2733 27° Northeast 255 293 4,800 -393 Climbing Los Angeles Center
Sun 04:03:24 PM 36.0597 -115.2614 14° North 203 234 3,700 -1,103 Descending Los Angeles Center
Sun 04:04:17 PM 36.0719 -115.2231 68° East 147 169 3,200 -689 Descending Los Angeles Center
Sun 04:04:25 PM 36.0731 -115.2144 81° East 133 153 3,000 -581 Descending Los Angeles Center
Sun 04:05:19 PM 36.0750 -115.1761 86° East 132 152 2,600 -590 Descending Los Angeles Center
Sun 04:05:26 PM 36.0731 -115.1744 145° Southeast 106 122 2,400 -1,714 Descending Los Angeles Center
Sun 04:07:00 PM 36.0801 -115.1523 90° East  Level Estimated

Login

Don't have an account? Register now (free) for customized features, flight alerts, and more!